Aviation Digital Data Service (ADDS)

Output produced by METARs form (1041 UTC 30 March 2017)
found at http://aviationweather.gov/adds/metars/
 
KAUG 300909Z 3009/3106 33013KT P6SM SKC 
     FM301600 33011G18KT P6SM SCT050 
     FM310000 35006KT P6SM SCT250